sensor_id;sensor_type;location;lat;lon;timestamp;P1;durP1;ratioP1;P2;durP2;ratioP2
20012;SDS011;10167;42.852;23.042;2023-02-20T00:01:33;3.08;;;1.58;;
20012;SDS011;10167;42.852;23.042;2023-02-20T00:04:02;0.85;;;0.85;;
20012;SDS011;10167;42.852;23.042;2023-02-20T00:06:32;1.25;;;1.00;;
20012;SDS011;10167;42.852;23.042;2023-02-20T00:09:01;2.25;;;1.42;;
20012;SDS011;10167;42.852;23.042;2023-02-20T00:11:30;1.20;;;0.70;;
20012;SDS011;10167;42.852;23.042;2023-02-20T00:13:59;4.60;;;1.65;;
20012;SDS011;10167;42.852;23.042;2023-02-20T00:16:28;2.13;;;1.50;;
20012;SDS011;10167;42.852;23.042;2023-02-20T00:18:57;1.98;;;1.48;;
20012;SDS011;10167;42.852;23.042;2023-02-20T00:21:26;2.33;;;1.65;;
20012;SDS011;10167;42.852;23.042;2023-02-20T00:23:57;2.08;;;1.75;;
20012;SDS011;10167;42.852;23.042;2023-02-20T00:26:26;1.23;;;1.13;;
20012;SDS011;10167;42.852;23.042;2023-02-20T00:28:55;1.10;;;0.93;;
20012;SDS011;10167;42.852;23.042;2023-02-20T00:31:24;1.40;;;1.30;;
20012;SDS011;10167;42.852;23.042;2023-02-20T00:33:54;3.25;;;2.33;;
20012;SDS011;10167;42.852;23.042;2023-02-20T00:36:23;5.50;;;2.05;;
20012;SDS011;10167;42.852;23.042;2023-02-20T00:38:52;0.65;;;0.65;;
20012;SDS011;10167;42.852;23.042;2023-02-20T00:41:24;1.48;;;1.38;;
20012;SDS011;10167;42.852;23.042;2023-02-20T00:43:53;0.98;;;0.98;;
20012;SDS011;10167;42.852;23.042;2023-02-20T00:46:22;1.17;;;1.08;;
20012;SDS011;10167;42.852;23.042;2023-02-20T00:48:51;3.85;;;1.40;;
20012;SDS011;10167;42.852;23.042;2023-02-20T00:51:52;6.15;;;1.17;;
20012;SDS011;10167;42.852;23.042;2023-02-20T00:54:22;2.22;;;2.03;;
20012;SDS011;10167;42.852;23.042;2023-02-20T00:56:52;1.63;;;1.45;;
20012;SDS011;10167;42.852;23.042;2023-02-20T00:59:23;0.75;;;0.75;;
20012;SDS011;10167;42.852;23.042;2023-02-20T01:01:52;4.78;;;1.88;;
20012;SDS011;10167;42.852;23.042;2023-02-20T01:04:22;1.30;;;1.15;;
20012;SDS011;10167;42.852;23.042;2023-02-20T01:06:51;1.90;;;1.77;;
20012;SDS011;10167;42.852;23.042;2023-02-20T01:09:20;0.50;;;0.50;;
20012;SDS011;10167;42.852;23.042;2023-02-20T01:11:49;1.77;;;1.35;;
20012;SDS011;10167;42.852;23.042;2023-02-20T01:14:20;2.28;;;1.75;;
20012;SDS011;10167;42.852;23.042;2023-02-20T01:16:50;1.27;;;0.65;;
20012;SDS011;10167;42.852;23.042;2023-02-20T01:19:21;0.85;;;0.75;;
20012;SDS011;10167;42.852;23.042;2023-02-20T01:21:52;3.50;;;2.03;;
20012;SDS011;10167;42.852;23.042;2023-02-20T01:24:21;1.52;;;1.42;;
20012;SDS011;10167;42.852;23.042;2023-02-20T01:26:50;12.20;;;1.98;;
20012;SDS011;10167;42.852;23.042;2023-02-20T01:29:21;1.45;;;1.35;;
20012;SDS011;10167;42.852;23.042;2023-02-20T01:31:50;1.38;;;0.85;;
20012;SDS011;10167;42.852;23.042;2023-02-20T01:34:20;4.35;;;1.60;;
20012;SDS011;10167;42.852;23.042;2023-02-20T01:36:50;1.17;;;1.08;;
20012;SDS011;10167;42.852;23.042;2023-02-20T01:39:21;1.30;;;0.52;;
20012;SDS011;10167;42.852;23.042;2023-02-20T01:41:54;1.20;;;1.10;;
20012;SDS011;10167;42.852;23.042;2023-02-20T01:44:27;2.38;;;0.88;;
20012;SDS011;10167;42.852;23.042;2023-02-20T01:46:59;2.72;;;1.08;;
20012;SDS011;10167;42.852;23.042;2023-02-20T01:49:31;1.05;;;1.00;;
20012;SDS011;10167;42.852;23.042;2023-02-20T01:52:05;0.73;;;0.73;;
20012;SDS011;10167;42.852;23.042;2023-02-20T01:54:41;0.52;;;0.52;;
20012;SDS011;10167;42.852;23.042;2023-02-20T01:57:13;0.22;;;0.22;;
20012;SDS011;10167;42.852;23.042;2023-02-20T01:59:48;1.88;;;0.95;;
20012;SDS011;10167;42.852;23.042;2023-02-20T02:02:19;0.50;;;0.50;;
20012;SDS011;10167;42.852;23.042;2023-02-20T02:04:49;0.75;;;0.70;;
20012;SDS011;10167;42.852;23.042;2023-02-20T02:07:21;1.25;;;0.95;;
20012;SDS011;10167;42.852;23.042;2023-02-20T02:09:52;1.55;;;1.20;;
20012;SDS011;10167;42.852;23.042;2023-02-20T02:12:29;0.40;;;0.40;;
20012;SDS011;10167;42.852;23.042;2023-02-20T02:15:01;0.75;;;0.75;;
20012;SDS011;10167;42.852;23.042;2023-02-20T02:17:49;0.85;;;0.85;;
20012;SDS011;10167;42.852;23.042;2023-02-20T02:20:45;0.63;;;0.63;;
20012;SDS011;10167;42.852;23.042;2023-02-20T02:23:52;0.40;;;0.30;;
20012;SDS011;10167;42.852;23.042;2023-02-20T02:33:32;0.40;;;0.40;;
20012;SDS011;10167;42.852;23.042;2023-02-20T02:39:09;0.63;;;0.63;;
20012;SDS011;10167;42.852;23.042;2023-02-20T02:41:51;0.65;;;0.65;;
20012;SDS011;10167;42.852;23.042;2023-02-20T02:44:26;0.93;;;0.93;;
20012;SDS011;10167;42.852;23.042;2023-02-20T02:47:01;0.75;;;0.75;;
20012;SDS011;10167;42.852;23.042;2023-02-20T02:49:35;0.85;;;0.57;;
20012;SDS011;10167;42.852;23.042;2023-02-20T02:52:10;0.47;;;0.40;;
20012;SDS011;10167;42.852;23.042;2023-02-20T02:55:01;0.82;;;0.82;;
20012;SDS011;10167;42.852;23.042;2023-02-20T02:57:31;0.35;;;0.35;;
20012;SDS011;10167;42.852;23.042;2023-02-20T03:00:02;0.57;;;0.57;;
20012;SDS011;10167;42.852;23.042;2023-02-20T03:02:34;0.40;;;0.40;;
20012;SDS011;10167;42.852;23.042;2023-02-20T03:05:09;0.57;;;0.57;;
20012;SDS011;10167;42.852;23.042;2023-02-20T03:07:48;1.52;;;0.38;;
20012;SDS011;10167;42.852;23.042;2023-02-20T03:10:21;1.08;;;0.38;;
20012;SDS011;10167;42.852;23.042;2023-02-20T03:12:58;1.55;;;1.10;;
20012;SDS011;10167;42.852;23.042;2023-02-20T03:15:33;0.30;;;0.30;;
20012;SDS011;10167;42.852;23.042;2023-02-20T03:18:10;0.40;;;0.40;;
20012;SDS011;10167;42.852;23.042;2023-02-20T03:20:47;0.55;;;0.55;;
20012;SDS011;10167;42.852;23.042;2023-02-20T03:23:22;0.25;;;0.25;;
20012;SDS011;10167;42.852;23.042;2023-02-20T03:25:54;0.80;;;0.52;;
20012;SDS011;10167;42.852;23.042;2023-02-20T03:28:27;0.30;;;0.30;;
20012;SDS011;10167;42.852;23.042;2023-02-20T03:31:03;1.55;;;0.40;;
20012;SDS011;10167;42.852;23.042;2023-02-20T03:33:39;1.27;;;0.95;;
20012;SDS011;10167;42.852;23.042;2023-02-20T03:36:31;0.38;;;0.38;;
20012;SDS011;10167;42.852;23.042;2023-02-20T03:39:25;1.65;;;0.95;;
20012;SDS011;10167;42.852;23.042;2023-02-20T03:42:17;0.93;;;0.60;;
20012;SDS011;10167;42.852;23.042;2023-02-20T03:45:17;0.35;;;0.35;;
20012;SDS011;10167;42.852;23.042;2023-02-20T03:47:50;0.38;;;0.35;;
20012;SDS011;10167;42.852;23.042;2023-02-20T03:50:22;1.08;;;0.65;;
20012;SDS011;10167;42.852;23.042;2023-02-20T03:53:03;0.73;;;0.73;;
20012;SDS011;10167;42.852;23.042;2023-02-20T03:55:35;0.77;;;0.47;;
20012;SDS011;10167;42.852;23.042;2023-02-20T03:58:08;0.77;;;0.45;;
20012;SDS011;10167;42.852;23.042;2023-02-20T04:00:39;0.20;;;0.20;;
20012;SDS011;10167;42.852;23.042;2023-02-20T04:03:14;0.20;;;0.20;;
20012;SDS011;10167;42.852;23.042;2023-02-20T04:05:51;0.38;;;0.30;;
20012;SDS011;10167;42.852;23.042;2023-02-20T04:08:30;1.05;;;0.95;;
20012;SDS011;10167;42.852;23.042;2023-02-20T04:11:05;0.45;;;0.45;;
20012;SDS011;10167;42.852;23.042;2023-02-20T04:13:37;0.98;;;0.98;;
20012;SDS011;10167;42.852;23.042;2023-02-20T04:16:07;0.60;;;0.60;;
20012;SDS011;10167;42.852;23.042;2023-02-20T04:18:39;0.50;;;0.50;;
20012;SDS011;10167;42.852;23.042;2023-02-20T04:21:10;0.68;;;0.68;;
20012;SDS011;10167;42.852;23.042;2023-02-20T04:23:48;0.73;;;0.73;;
20012;SDS011;10167;42.852;23.042;2023-02-20T04:26:27;0.38;;;0.38;;
20012;SDS011;10167;42.852;23.042;2023-02-20T04:28:57;0.28;;;0.28;;
20012;SDS011;10167;42.852;23.042;2023-02-20T04:31:26;0.25;;;0.25;;
20012;SDS011;10167;42.852;23.042;2023-02-20T04:33:55;0.73;;;0.65;;
20012;SDS011;10167;42.852;23.042;2023-02-20T04:36:25;0.52;;;0.52;;
20012;SDS011;10167;42.852;23.042;2023-02-20T04:38:57;0.20;;;0.20;;
20012;SDS011;10167;42.852;23.042;2023-02-20T04:41:31;0.75;;;0.75;;
20012;SDS011;10167;42.852;23.042;2023-02-20T04:44:01;0.68;;;0.68;;
20012;SDS011;10167;42.852;23.042;2023-02-20T04:46:49;0.50;;;0.50;;
20012;SDS011;10167;42.852;23.042;2023-02-20T04:49:19;0.45;;;0.45;;
20012;SDS011;10167;42.852;23.042;2023-02-20T04:51:52;0.10;;;0.10;;
20012;SDS011;10167;42.852;23.042;2023-02-20T04:54:21;0.45;;;0.45;;
20012;SDS011;10167;42.852;23.042;2023-02-20T04:56:52;0.45;;;0.45;;
20012;SDS011;10167;42.852;23.042;2023-02-20T04:59:21;0.20;;;0.20;;
20012;SDS011;10167;42.852;23.042;2023-02-20T05:01:51;0.22;;;0.22;;
20012;SDS011;10167;42.852;23.042;2023-02-20T05:04:22;0.20;;;0.20;;
20012;SDS011;10167;42.852;23.042;2023-02-20T05:06:52;1.00;;;0.55;;
20012;SDS011;10167;42.852;23.042;2023-02-20T05:09:23;0.30;;;0.30;;
20012;SDS011;10167;42.852;23.042;2023-02-20T05:11:54;1.95;;;1.13;;
20012;SDS011;10167;42.852;23.042;2023-02-20T05:14:23;0.65;;;0.40;;
20012;SDS011;10167;42.852;23.042;2023-02-20T05:16:52;0.65;;;0.65;;
20012;SDS011;10167;42.852;23.042;2023-02-20T05:19:22;0.60;;;0.60;;
20012;SDS011;10167;42.852;23.042;2023-02-20T05:21:51;1.17;;;1.02;;
20012;SDS011;10167;42.852;23.042;2023-02-20T05:24:37;0.38;;;0.38;;
20012;SDS011;10167;42.852;23.042;2023-02-20T05:27:08;1.17;;;1.13;;
20012;SDS011;10167;42.852;23.042;2023-02-20T05:29:37;1.95;;;0.90;;
20012;SDS011;10167;42.852;23.042;2023-02-20T05:32:06;0.30;;;0.30;;
20012;SDS011;10167;42.852;23.042;2023-02-20T05:34:35;2.55;;;1.08;;
20012;SDS011;10167;42.852;23.042;2023-02-20T05:37:04;2.33;;;1.70;;
20012;SDS011;10167;42.852;23.042;2023-02-20T05:39:33;0.35;;;0.35;;
20012;SDS011;10167;42.852;23.042;2023-02-20T05:42:02;0.47;;;0.47;;
20012;SDS011;10167;42.852;23.042;2023-02-20T05:44:34;0.93;;;0.93;;
20012;SDS011;10167;42.852;23.042;2023-02-20T05:47:03;0.32;;;0.32;;
20012;SDS011;10167;42.852;23.042;2023-02-20T05:49:33;0.60;;;0.60;;
20012;SDS011;10167;42.852;23.042;2023-02-20T05:52:03;2.60;;;0.88;;
20012;SDS011;10167;42.852;23.042;2023-02-20T05:54:38;0.98;;;0.40;;
20012;SDS011;10167;42.852;23.042;2023-02-20T05:57:08;0.45;;;0.45;;
20012;SDS011;10167;42.852;23.042;2023-02-20T05:59:41;1.45;;;1.33;;
20012;SDS011;10167;42.852;23.042;2023-02-20T06:02:10;3.53;;;1.27;;
20012;SDS011;10167;42.852;23.042;2023-02-20T06:04:39;1.52;;;1.42;;
20012;SDS011;10167;42.852;23.042;2023-02-20T06:07:08;0.65;;;0.63;;
20012;SDS011;10167;42.852;23.042;2023-02-20T06:09:40;1.00;;;1.00;;
20012;SDS011;10167;42.852;23.042;2023-02-20T06:12:13;0.20;;;0.20;;
20012;SDS011;10167;42.852;23.042;2023-02-20T06:14:44;4.78;;;1.13;;
20012;SDS011;10167;42.852;23.042;2023-02-20T06:17:13;0.40;;;0.40;;
20012;SDS011;10167;42.852;23.042;2023-02-20T06:19:42;3.75;;;2.15;;
20012;SDS011;10167;42.852;23.042;2023-02-20T06:22:11;0.40;;;0.40;;
20012;SDS011;10167;42.852;23.042;2023-02-20T06:24:43;0.32;;;0.25;;
20012;SDS011;10167;42.852;23.042;2023-02-20T06:27:13;2.63;;;1.13;;
20012;SDS011;10167;42.852;23.042;2023-02-20T06:29:45;0.43;;;0.43;;
20012;SDS011;10167;42.852;23.042;2023-02-20T06:32:15;6.72;;;1.60;;
20012;SDS011;10167;42.852;23.042;2023-02-20T06:34:44;2.13;;;1.85;;
20012;SDS011;10167;42.852;23.042;2023-02-20T06:37:13;1.10;;;1.00;;
20012;SDS011;10167;42.852;23.042;2023-02-20T06:39:42;3.42;;;1.35;;
20012;SDS011;10167;42.852;23.042;2023-02-20T06:42:14;1.85;;;1.02;;
20012;SDS011;10167;42.852;23.042;2023-02-20T06:44:44;1.70;;;1.20;;
20012;SDS011;10167;42.852;23.042;2023-02-20T06:54:37;0.55;;;0.55;;
20012;SDS011;10167;42.852;23.042;2023-02-20T06:57:44;0.30;;;0.30;;
20012;SDS011;10167;42.852;23.042;2023-02-20T07:00:19;0.50;;;0.50;;
20012;SDS011;10167;42.852;23.042;2023-02-20T07:02:48;0.40;;;0.40;;
20012;SDS011;10167;42.852;23.042;2023-02-20T07:05:18;0.30;;;0.30;;
20012;SDS011;10167;42.852;23.042;2023-02-20T07:07:47;0.38;;;0.38;;
20012;SDS011;10167;42.852;23.042;2023-02-20T07:10:16;1.10;;;0.70;;
20012;SDS011;10167;42.852;23.042;2023-02-20T07:12:45;0.60;;;0.60;;
20012;SDS011;10167;42.852;23.042;2023-02-20T07:15:15;1.20;;;0.90;;
20012;SDS011;10167;42.852;23.042;2023-02-20T07:17:47;1.20;;;1.02;;
20012;SDS011;10167;42.852;23.042;2023-02-20T07:20:16;1.35;;;0.68;;
20012;SDS011;10167;42.852;23.042;2023-02-20T07:22:48;0.20;;;0.20;;
20012;SDS011;10167;42.852;23.042;2023-02-20T07:25:18;1.02;;;0.77;;
20012;SDS011;10167;42.852;23.042;2023-02-20T07:27:47;0.57;;;0.57;;
20012;SDS011;10167;42.852;23.042;2023-02-20T07:30:17;4.75;;;1.67;;
20012;SDS011;10167;42.852;23.042;2023-02-20T07:32:48;2.30;;;0.80;;
20012;SDS011;10167;42.852;23.042;2023-02-20T07:35:17;0.20;;;0.20;;
20012;SDS011;10167;42.852;23.042;2023-02-20T07:37:46;0.20;;;0.20;;
20012;SDS011;10167;42.852;23.042;2023-02-20T07:40:15;3.67;;;0.95;;
20012;SDS011;10167;42.852;23.042;2023-02-20T07:42:44;0.68;;;0.68;;
20012;SDS011;10167;42.852;23.042;2023-02-20T07:45:20;0.35;;;0.35;;
20012;SDS011;10167;42.852;23.042;2023-02-20T07:47:51;0.40;;;0.40;;
20012;SDS011;10167;42.852;23.042;2023-02-20T07:50:20;0.40;;;0.40;;
20012;SDS011;10167;42.852;23.042;2023-02-20T07:52:49;0.52;;;0.40;;
20012;SDS011;10167;42.852;23.042;2023-02-20T07:55:19;0.30;;;0.30;;
20012;SDS011;10167;42.852;23.042;2023-02-20T07:57:48;3.63;;;0.85;;
20012;SDS011;10167;42.852;23.042;2023-02-20T08:00:18;0.32;;;0.32;;
20012;SDS011;10167;42.852;23.042;2023-02-20T08:02:48;0.20;;;0.20;;
20012;SDS011;10167;42.852;23.042;2023-02-20T08:05:18;0.20;;;0.20;;
20012;SDS011;10167;42.852;23.042;2023-02-20T08:07:48;0.10;;;0.10;;
20012;SDS011;10167;42.852;23.042;2023-02-20T08:10:19;2.05;;;1.00;;
20012;SDS011;10167;42.852;23.042;2023-02-20T08:12:50;0.97;;;0.40;;
20012;SDS011;10167;42.852;23.042;2023-02-20T08:15:21;0.30;;;0.30;;
20012;SDS011;10167;42.852;23.042;2023-02-20T08:17:52;0.40;;;0.40;;
20012;SDS011;10167;42.852;23.042;2023-02-20T08:20:22;0.65;;;0.63;;
20012;SDS011;10167;42.852;23.042;2023-02-20T08:22:51;1.08;;;0.75;;
20012;SDS011;10167;42.852;23.042;2023-02-20T08:25:21;0.20;;;0.20;;
20012;SDS011;10167;42.852;23.042;2023-02-20T08:27:50;0.73;;;0.73;;
20012;SDS011;10167;42.852;23.042;2023-02-20T08:30:20;0.20;;;0.20;;
20012;SDS011;10167;42.852;23.042;2023-02-20T08:32:52;0.38;;;0.38;;
20012;SDS011;10167;42.852;23.042;2023-02-20T08:35:23;0.50;;;0.50;;
20012;SDS011;10167;42.852;23.042;2023-02-20T08:37:52;0.82;;;0.75;;
20012;SDS011;10167;42.852;23.042;2023-02-20T08:40:21;0.70;;;0.70;;
20012;SDS011;10167;42.852;23.042;2023-02-20T08:42:50;0.25;;;0.25;;
20012;SDS011;10167;42.852;23.042;2023-02-20T08:45:19;0.50;;;0.50;;
20012;SDS011;10167;42.852;23.042;2023-02-20T08:47:48;0.70;;;0.70;;
20012;SDS011;10167;42.852;23.042;2023-02-20T08:50:18;4.75;;;0.75;;
20012;SDS011;10167;42.852;23.042;2023-02-20T08:52:49;0.20;;;0.20;;
20012;SDS011;10167;42.852;23.042;2023-02-20T08:55:18;0.55;;;0.30;;
20012;SDS011;10167;42.852;23.042;2023-02-20T08:57:47;0.20;;;0.20;;
20012;SDS011;10167;42.852;23.042;2023-02-20T09:00:17;0.30;;;0.30;;
20012;SDS011;10167;42.852;23.042;2023-02-20T09:02:46;0.20;;;0.20;;
20012;SDS011;10167;42.852;23.042;2023-02-20T09:05:16;0.10;;;0.10;;
20012;SDS011;10167;42.852;23.042;2023-02-20T09:07:45;0.20;;;0.20;;
20012;SDS011;10167;42.852;23.042;2023-02-20T09:10:16;0.20;;;0.20;;
20012;SDS011;10167;42.852;23.042;2023-02-20T09:12:46;0.35;;;0.35;;
20012;SDS011;10167;42.852;23.042;2023-02-20T09:15:18;1.08;;;0.93;;
20012;SDS011;10167;42.852;23.042;2023-02-20T09:17:47;0.43;;;0.43;;
20012;SDS011;10167;42.852;23.042;2023-02-20T09:20:19;0.95;;;0.65;;
20012;SDS011;10167;42.852;23.042;2023-02-20T09:22:49;0.40;;;0.40;;
20012;SDS011;10167;42.852;23.042;2023-02-20T09:25:20;0.30;;;0.30;;
20012;SDS011;10167;42.852;23.042;2023-02-20T09:27:50;0.40;;;0.40;;
20012;SDS011;10167;42.852;23.042;2023-02-20T09:30:19;0.20;;;0.20;;
20012;SDS011;10167;42.852;23.042;2023-02-20T09:32:49;0.20;;;0.20;;
20012;SDS011;10167;42.852;23.042;2023-02-20T09:35:19;0.40;;;0.40;;
20012;SDS011;10167;42.852;23.042;2023-02-20T09:37:51;3.30;;;0.50;;
20012;SDS011;10167;42.852;23.042;2023-02-20T09:40:22;0.10;;;0.10;;
20012;SDS011;10167;42.852;23.042;2023-02-20T09:45:42;2.65;;;0.98;;
20012;SDS011;10167;42.852;23.042;2023-02-20T09:48:20;0.40;;;0.40;;
20012;SDS011;10167;42.852;23.042;2023-02-20T09:50:58;0.60;;;0.60;;
20012;SDS011;10167;42.852;23.042;2023-02-20T09:53:32;0.22;;;0.22;;
20012;SDS011;10167;42.852;23.042;2023-02-20T09:56:09;0.25;;;0.25;;
20012;SDS011;10167;42.852;23.042;2023-02-20T09:58:42;0.28;;;0.20;;
20012;SDS011;10167;42.852;23.042;2023-02-20T10:01:13;1.23;;;0.70;;
20012;SDS011;10167;42.852;23.042;2023-02-20T10:03:50;1.05;;;0.80;;
20012;SDS011;10167;42.852;23.042;2023-02-20T10:06:24;0.65;;;0.60;;
20012;SDS011;10167;42.852;23.042;2023-02-20T10:08:55;0.80;;;0.60;;
20012;SDS011;10167;42.852;23.042;2023-02-20T10:11:33;0.73;;;0.73;;
20012;SDS011;10167;42.852;23.042;2023-02-20T10:14:19;0.10;;;0.10;;
20012;SDS011;10167;42.852;23.042;2023-02-20T10:17:08;2.83;;;0.40;;
20012;SDS011;10167;42.852;23.042;2023-02-20T10:19:49;1.17;;;0.40;;
20012;SDS011;10167;42.852;23.042;2023-02-20T10:22:22;0.57;;;0.57;;
20012;SDS011;10167;42.852;23.042;2023-02-20T10:25:07;1.05;;;0.98;;
20012;SDS011;10167;42.852;23.042;2023-02-20T10:27:43;5.40;;;3.67;;
20012;SDS011;10167;42.852;23.042;2023-02-20T10:30:25;1.73;;;0.57;;
20012;SDS011;10167;42.852;23.042;2023-02-20T10:33:01;4.20;;;2.50;;
20012;SDS011;10167;42.852;23.042;2023-02-20T10:35:40;0.20;;;0.20;;
20012;SDS011;10167;42.852;23.042;2023-02-20T10:38:14;1.20;;;1.02;;
20012;SDS011;10167;42.852;23.042;2023-02-20T10:40:50;4.38;;;2.15;;
20012;SDS011;10167;42.852;23.042;2023-02-20T10:43:27;2.00;;;1.50;;
20012;SDS011;10167;42.852;23.042;2023-02-20T10:46:03;0.38;;;0.38;;
20012;SDS011;10167;42.852;23.042;2023-02-20T10:48:39;0.68;;;0.68;;
20012;SDS011;10167;42.852;23.042;2023-02-20T10:51:12;5.53;;;2.08;;
20012;SDS011;10167;42.852;23.042;2023-02-20T10:53:46;3.80;;;1.60;;
20012;SDS011;10167;42.852;23.042;2023-02-20T10:56:22;5.72;;;2.08;;
20012;SDS011;10167;42.852;23.042;2023-02-20T10:58:57;3.80;;;2.50;;
20012;SDS011;10167;42.852;23.042;2023-02-20T11:01:31;2.72;;;1.83;;
20012;SDS011;10167;42.852;23.042;2023-02-20T11:04:03;13.80;;;2.42;;
20012;SDS011;10167;42.852;23.042;2023-02-20T11:06:40;0.52;;;0.52;;
20012;SDS011;10167;42.852;23.042;2023-02-20T11:09:12;2.10;;;0.95;;
20012;SDS011;10167;42.852;23.042;2023-02-20T11:11:42;1.85;;;0.45;;
20012;SDS011;10167;42.852;23.042;2023-02-20T11:14:14;0.25;;;0.25;;
20012;SDS011;10167;42.852;23.042;2023-02-20T11:17:06;0.32;;;0.32;;
20012;SDS011;10167;42.852;23.042;2023-02-20T11:19:42;0.45;;;0.38;;
20012;SDS011;10167;42.852;23.042;2023-02-20T11:22:12;0.20;;;0.20;;
20012;SDS011;10167;42.852;23.042;2023-02-20T11:24:43;0.65;;;0.63;;
20012;SDS011;10167;42.852;23.042;2023-02-20T11:27:13;0.65;;;0.65;;
20012;SDS011;10167;42.852;23.042;2023-02-20T11:29:50;13.65;;;1.13;;
20012;SDS011;10167;42.852;23.042;2023-02-20T11:32:30;0.40;;;0.40;;
20012;SDS011;10167;42.852;23.042;2023-02-20T11:35:05;0.73;;;0.38;;
20012;SDS011;10167;42.852;23.042;2023-02-20T11:41:07;0.30;;;0.30;;
20012;SDS011;10167;42.852;23.042;2023-02-20T11:46:47;0.30;;;0.30;;
20012;SDS011;10167;42.852;23.042;2023-02-20T11:49:37;0.35;;;0.35;;
20012;SDS011;10167;42.852;23.042;2023-02-20T11:52:07;7.13;;;0.77;;
20012;SDS011;10167;42.852;23.042;2023-02-20T11:54:37;0.63;;;0.63;;
20012;SDS011;10167;42.852;23.042;2023-02-20T11:57:12;0.30;;;0.30;;
20012;SDS011;10167;42.852;23.042;2023-02-20T11:59:49;0.20;;;0.20;;
20012;SDS011;10167;42.852;23.042;2023-02-20T12:02:25;0.35;;;0.35;;
20012;SDS011;10167;42.852;23.042;2023-02-20T12:05:06;0.52;;;0.30;;
20012;SDS011;10167;42.852;23.042;2023-02-20T12:07:41;0.52;;;0.50;;
20012;SDS011;10167;42.852;23.042;2023-02-20T12:10:23;0.20;;;0.20;;
20012;SDS011;10167;42.852;23.042;2023-02-20T12:12:57;0.68;;;0.65;;
20012;SDS011;10167;42.852;23.042;2023-02-20T12:15:27;1.00;;;0.85;;
20012;SDS011;10167;42.852;23.042;2023-02-20T12:18:06;1.05;;;1.00;;
20012;SDS011;10167;42.852;23.042;2023-02-20T12:20:56;0.35;;;0.35;;
20012;SDS011;10167;42.852;23.042;2023-02-20T12:23:34;6.40;;;0.57;;
20012;SDS011;10167;42.852;23.042;2023-02-20T12:26:14;0.52;;;0.50;;
20012;SDS011;10167;42.852;23.042;2023-02-20T12:28:57;0.50;;;0.50;;
20012;SDS011;10167;42.852;23.042;2023-02-20T12:31:41;15.75;;;1.60;;
20012;SDS011;10167;42.852;23.042;2023-02-20T12:34:26;0.22;;;0.22;;
20012;SDS011;10167;42.852;23.042;2023-02-20T12:37:08;0.30;;;0.30;;
20012;SDS011;10167;42.852;23.042;2023-02-20T12:39:49;0.20;;;0.20;;
20012;SDS011;10167;42.852;23.042;2023-02-20T12:42:31;0.10;;;0.10;;
20012;SDS011;10167;42.852;23.042;2023-02-20T12:45:17;0.55;;;0.38;;
20012;SDS011;10167;42.852;23.042;2023-02-20T12:47:56;0.20;;;0.20;;
20012;SDS011;10167;42.852;23.042;2023-02-20T12:50:44;0.20;;;0.20;;
20012;SDS011;10167;42.852;23.042;2023-02-20T12:53:28;0.75;;;0.75;;
20012;SDS011;10167;42.852;23.042;2023-02-20T12:56:12;0.20;;;0.20;;
20012;SDS011;10167;42.852;23.042;2023-02-20T12:58:53;0.55;;;0.20;;
20012;SDS011;10167;42.852;23.042;2023-02-20T13:01:27;0.20;;;0.20;;
20012;SDS011;10167;42.852;23.042;2023-02-20T13:04:15;0.20;;;0.20;;
20012;SDS011;10167;42.852;23.042;2023-02-20T13:06:53;0.50;;;0.50;;
20012;SDS011;10167;42.852;23.042;2023-02-20T13:09:31;0.17;;;0.17;;
20012;SDS011;10167;42.852;23.042;2023-02-20T13:12:03;9.57;;;0.77;;
20012;SDS011;10167;42.852;23.042;2023-02-20T13:14:41;0.20;;;0.20;;
20012;SDS011;10167;42.852;23.042;2023-02-20T13:17:25;0.20;;;0.20;;
20012;SDS011;10167;42.852;23.042;2023-02-20T13:20:05;0.28;;;0.28;;
20012;SDS011;10167;42.852;23.042;2023-02-20T13:22:44;0.10;;;0.10;;
20012;SDS011;10167;42.852;23.042;2023-02-20T13:28:21;0.17;;;0.17;;
20012;SDS011;10167;42.852;23.042;2023-02-20T13:33:42;0.20;;;0.20;;
20012;SDS011;10167;42.852;23.042;2023-02-20T13:48:17;0.25;;;0.25;;
20012;SDS011;10167;42.852;23.042;2023-02-20T13:56:57;0.10;;;0.10;;
20012;SDS011;10167;42.852;23.042;2023-02-20T13:59:31;0.47;;;0.47;;
20012;SDS011;10167;42.852;23.042;2023-02-20T14:02:11;2.33;;;1.10;;
20012;SDS011;10167;42.852;23.042;2023-02-20T14:04:53;1.38;;;1.13;;
20012;SDS011;10167;42.852;23.042;2023-02-20T14:07:31;0.70;;;0.50;;
20012;SDS011;10167;42.852;23.042;2023-02-20T14:10:05;0.45;;;0.45;;
20012;SDS011;10167;42.852;23.042;2023-02-20T14:12:40;2.97;;;0.90;;
20012;SDS011;10167;42.852;23.042;2023-02-20T14:15:09;0.20;;;0.20;;
20012;SDS011;10167;42.852;23.042;2023-02-20T14:17:40;4.57;;;0.55;;
20012;SDS011;10167;42.852;23.042;2023-02-20T14:20:19;0.30;;;0.30;;
20012;SDS011;10167;42.852;23.042;2023-02-20T14:23:14;0.68;;;0.68;;
20012;SDS011;10167;42.852;23.042;2023-02-20T14:25:54;0.10;;;0.10;;
20012;SDS011;10167;42.852;23.042;2023-02-20T14:28:43;0.17;;;0.17;;
20012;SDS011;10167;42.852;23.042;2023-02-20T14:31:23;0.40;;;0.40;;
20012;SDS011;10167;42.852;23.042;2023-02-20T14:33:55;1.65;;;0.30;;
20012;SDS011;10167;42.852;23.042;2023-02-20T14:36:29;0.30;;;0.30;;
20012;SDS011;10167;42.852;23.042;2023-02-20T14:39:10;0.20;;;0.20;;
20012;SDS011;10167;42.852;23.042;2023-02-20T14:41:50;0.20;;;0.20;;
20012;SDS011;10167;42.852;23.042;2023-02-20T15:04:03;0.20;;;0.20;;
20012;SDS011;10167;42.852;23.042;2023-02-20T15:06:37;1.10;;;0.52;;
20012;SDS011;10167;42.852;23.042;2023-02-20T15:09:07;0.30;;;0.30;;
20012;SDS011;10167;42.852;23.042;2023-02-20T15:11:49;1.83;;;1.73;;
20012;SDS011;10167;42.852;23.042;2023-02-20T15:14:24;37.35;;;16.63;;
20012;SDS011;10167;42.852;23.042;2023-02-20T15:17:05;31.42;;;13.02;;
20012;SDS011;10167;42.852;23.042;2023-02-20T15:19:38;38.05;;;21.05;;
20012;SDS011;10167;42.852;23.042;2023-02-20T15:22:20;17.60;;;8.02;;
20012;SDS011;10167;42.852;23.042;2023-02-20T15:28:05;3.28;;;3.00;;
20012;SDS011;10167;42.852;23.042;2023-02-20T15:33:28;3.25;;;1.85;;
20012;SDS011;10167;42.852;23.042;2023-02-20T15:36:00;49.92;;;4.72;;
20012;SDS011;10167;42.852;23.042;2023-02-20T15:38:30;3.25;;;1.65;;
20012;SDS011;10167;42.852;23.042;2023-02-20T15:41:01;1.20;;;1.05;;
20012;SDS011;10167;42.852;23.042;2023-02-20T15:43:32;3.60;;;1.73;;
20012;SDS011;10167;42.852;23.042;2023-02-20T15:46:13;1.02;;;0.93;;
20012;SDS011;10167;42.852;23.042;2023-02-20T15:48:43;2.60;;;2.40;;
20012;SDS011;10167;42.852;23.042;2023-02-20T15:51:15;1.70;;;1.38;;
20012;SDS011;10167;42.852;23.042;2023-02-20T15:53:46;1.40;;;1.08;;
20012;SDS011;10167;42.852;23.042;2023-02-20T15:56:16;1.20;;;0.90;;
20012;SDS011;10167;42.852;23.042;2023-02-20T15:58:46;0.38;;;0.38;;
20012;SDS011;10167;42.852;23.042;2023-02-20T16:01:16;3.20;;;1.75;;
20012;SDS011;10167;42.852;23.042;2023-02-20T16:03:46;4.05;;;1.92;;
20012;SDS011;10167;42.852;23.042;2023-02-20T16:06:21;3.53;;;2.72;;
20012;SDS011;10167;42.852;23.042;2023-02-20T16:08:51;1.87;;;1.77;;
20012;SDS011;10167;42.852;23.042;2023-02-20T16:11:21;1.88;;;0.98;;
20012;SDS011;10167;42.852;23.042;2023-02-20T16:13:54;9.88;;;3.00;;
20012;SDS011;10167;42.852;23.042;2023-02-20T16:16:27;2.80;;;1.83;;
20012;SDS011;10167;42.852;23.042;2023-02-20T16:19:00;1.92;;;1.48;;
20012;SDS011;10167;42.852;23.042;2023-02-20T16:21:31;3.05;;;1.67;;
20012;SDS011;10167;42.852;23.042;2023-02-20T16:24:01;2.28;;;1.27;;
20012;SDS011;10167;42.852;23.042;2023-02-20T16:26:30;3.53;;;2.35;;
20012;SDS011;10167;42.852;23.042;2023-02-20T16:29:03;2.53;;;1.90;;